Time;durP1;ratioP1;P1;durP2;ratioP2;P2;SDS_P1;SDS_P2;PMS_P1;PMS_P2;Temp;Humidity;BMP_temperature;BMP_pressure;BME280_temperature;BME280_humidity;BME280_pressure;Samples;Min_cycle;Max_cycle;Signal;HPM_P1;HPM_P2
2022/09/27 00:00:00;;;;;;;0.8;0.8;;;;;;;10.3;100.0;99440;;;;
2022/09/27 00:01:00;;;;;;;0.8;0.8;;;;;;;10.3;100.0;99440;;;;
2022/09/27 00:02:00;;;;;;;0.8;0.8;;;;;;;10.3;100.0;99450;;;;
2022/09/27 00:03:01;;;;;;;0.8;0.8;;;;;;;10.3;100.0;99450;;;;
2022/09/27 00:04:00;;;;;;;0.8;0.8;;;;;;;10.3;100.0;99440;;;;
2022/09/27 00:05:00;;;;;;;0.8;0.8;;;;;;;10.3;100.0;99440;;;;
2022/09/27 00:06:01;;;;;;;0.8;0.8;;;;;;;10.2;100.0;99440;;;;
2022/09/27 00:07:01;;;;;;;0.8;0.8;;;;;;;10.2;100.0;99440;;;;
2022/09/27 00:08:00;;;;;;;0.8;0.8;;;;;;;10.2;100.0;99440;;;;
2022/09/27 00:09:00;;;;;;;0.8;0.8;;;;;;;10.2;100.0;99440;;;;
2022/09/27 00:10:00;;;;;;;0.8;0.8;;;;;;;10.2;100.0;99440;;;;
2022/09/27 00:11:02;;;;;;;0.9;0.9;;;;;;;10.2;100.0;99440;;;;
2022/09/27 00:12:00;;;;;;;0.9;0.9;;;;;;;10.2;100.0;99450;;;;
2022/09/27 00:13:00;;;;;;;0.9;0.9;;;;;;;10.2;100.0;99450;;;;
2022/09/27 00:14:00;;;;;;;0.9;0.9;;;;;;;10.1;100.0;99450;;;;
2022/09/27 00:15:01;;;;;;;0.9;0.9;;;;;;;10.1;100.0;99450;;;;
2022/09/27 00:16:03;;;;;;;0.9;0.9;;;;;;;10.2;100.0;99460;;;;
2022/09/27 00:17:00;;;;;;;0.9;0.9;;;;;;;10.2;100.0;99460;;;;
2022/09/27 00:18:00;;;;;;;0.9;0.9;;;;;;;10.1;100.0;99460;;;;
2022/09/27 00:19:01;;;;;;;0.9;0.9;;;;;;;10.1;100.0;99460;;;;
2022/09/27 00:20:00;;;;;;;0.9;0.9;;;;;;;10.1;100.0;99460;;;;
2022/09/27 00:21:06;;;;;;;0.9;0.9;;;;;;;10.2;100.0;99450;;;;
2022/09/27 00:22:00;;;;;;;0.9;0.9;;;;;;;10.2;100.0;99450;;;;
2022/09/27 00:23:00;;;;;;;0.9;0.9;;;;;;;10.2;100.0;99450;;;;
2022/09/27 00:24:00;;;;;;;0.9;0.9;;;;;;;10.1;100.0;99460;;;;
2022/09/27 00:25:00;;;;;;;0.9;0.9;;;;;;;10.1;100.0;99460;;;;
2022/09/27 00:26:00;;;;;;;0.9;0.9;;;;;;;10.1;100.0;99460;;;;
2022/09/27 00:27:00;;;;;;;0.9;0.9;;;;;;;10.1;100.0;99460;;;;
2022/09/27 00:28:00;;;;;;;0.9;0.9;;;;;;;10.1;100.0;99460;;;;
2022/09/27 00:29:00;;;;;;;0.9;0.9;;;;;;;10.1;100.0;99460;;;;
2022/09/27 00:30:00;;;;;;;0.9;0.9;;;;;;;10.1;100.0;99460;;;;
2022/09/27 00:31:00;;;;;;;1.0;1.0;;;;;;;10.1;100.0;99460;;;;
2022/09/27 00:32:00;;;;;;;1.0;1.0;;;;;;;10.1;100.0;99460;;;;
2022/09/27 00:33:00;;;;;;;1.0;1.0;;;;;;;10.1;100.0;99460;;;;
2022/09/27 00:34:00;;;;;;;1.0;1.0;;;;;;;10.2;100.0;99460;;;;
2022/09/27 00:35:00;;;;;;;1.0;1.0;;;;;;;10.2;100.0;99460;;;;
2022/09/27 00:36:04;;;;;;;1.0;1.0;;;;;;;10.1;100.0;99470;;;;
2022/09/27 00:37:00;;;;;;;1.0;1.0;;;;;;;10.1;100.0;99470;;;;
2022/09/27 00:38:00;;;;;;;1.0;1.0;;;;;;;10.2;100.0;99470;;;;
2022/09/27 00:39:00;;;;;;;1.0;1.0;;;;;;;10.2;100.0;99470;;;;
2022/09/27 00:40:00;;;;;;;1.0;1.0;;;;;;;10.2;100.0;99470;;;;
2022/09/27 00:41:00;;;;;;;1.0;1.0;;;;;;;10.2;100.0;99470;;;;
2022/09/27 00:42:00;;;;;;;1.0;1.0;;;;;;;10.2;100.0;99480;;;;
2022/09/27 00:43:00;;;;;;;1.0;1.0;;;;;;;10.2;100.0;99480;;;;
2022/09/27 00:44:03;;;;;;;1.0;1.0;;;;;;;10.1;100.0;99480;;;;
2022/09/27 00:45:00;;;;;;;1.0;1.0;;;;;;;10.1;100.0;99480;;;;
2022/09/27 00:46:02;;;;;;;1.0;1.0;;;;;;;10.2;100.0;99480;;;;
2022/09/27 00:47:08;;;;;;;1.0;1.0;;;;;;;10.1;100.0;99470;;;;
2022/09/27 00:48:02;;;;;;;1.0;1.0;;;;;;;10.1;100.0;99470;;;;
2022/09/27 00:49:10;;;;;;;1.0;1.0;;;;;;;10.1;100.0;99470;;;;
2022/09/27 00:50:07;;;;;;;1.6;1.5;;;;;;;10.1;100.0;99470;;;;
2022/09/27 00:51:02;;;;;;;1.6;1.5;;;;;;;10.1;100.0;99470;;;;
2022/09/27 00:52:02;;;;;;;1.6;1.5;;;;;;;10.2;100.0;99470;;;;
2022/09/27 00:53:09;;;;;;;1.6;1.5;;;;;;;10.1;100.0;99470;;;;
2022/09/27 00:54:00;;;;;;;1.6;1.5;;;;;;;10.1;100.0;99470;;;;
2022/09/27 00:55:03;;;;;;;1.6;1.5;;;;;;;10.1;100.0;99470;;;;
2022/09/27 00:56:01;;;;;;;1.6;1.5;;;;;;;10.1;100.0;99480;;;;
2022/09/27 00:57:01;;;;;;;1.6;1.5;;;;;;;10.1;100.0;99480;;;;
2022/09/27 00:58:01;;;;;;;1.6;1.5;;;;;;;10.1;100.0;99480;;;;
2022/09/27 00:59:02;;;;;;;1.6;1.5;;;;;;;10.1;100.0;99480;;;;
2022/09/27 01:00:03;;;;;;;1.6;1.5;;;;;;;10.1;100.0;99480;;;;
2022/09/27 01:01:02;;;;;;;1.6;1.5;;;;;;;10.1;100.0;99480;;;;
2022/09/27 01:02:02;;;;;;;1.6;1.5;;;;;;;10.1;100.0;99480;;;;
2022/09/27 01:03:02;;;;;;;1.6;1.5;;;;;;;10.1;100.0;99480;;;;
2022/09/27 01:04:04;;;;;;;1.6;1.5;;;;;;;10.1;100.0;99480;;;;
2022/09/27 01:05:00;;;;;;;1.6;1.5;;;;;;;10.1;100.0;99480;;;;
2022/09/27 01:06:00;;;;;;;1.6;1.5;;;;;;;10.1;100.0;99480;;;;
2022/09/27 01:07:00;;;;;;;1.6;1.5;;;;;;;10.1;100.0;99480;;;;
2022/09/27 01:08:00;;;;;;;1.6;1.5;;;;;;;10.0;100.0;99490;;;;
2022/09/27 01:09:00;;;;;;;1.6;1.5;;;;;;;10.0;100.0;99490;;;;
2022/09/27 01:10:00;;;;;;;1.0;1.0;;;;;;;10.0;100.0;99480;;;;
2022/09/27 01:11:09;;;;;;;1.0;1.0;;;;;;;10.0;100.0;99470;;;;
2022/09/27 01:12:10;;;;;;;1.0;1.0;;;;;;;10.0;100.0;99470;;;;
2022/09/27 01:13:00;;;;;;;1.0;1.0;;;;;;;10.0;100.0;99470;;;;
2022/09/27 01:14:08;;;;;;;1.0;1.0;;;;;;;10.1;100.0;99480;;;;
2022/09/27 01:15:07;;;;;;;1.0;1.0;;;;;;;10.1;100.0;99470;;;;
2022/09/27 01:16:08;;;;;;;1.0;1.0;;;;;;;10.1;100.0;99470;;;;
2022/09/27 01:17:10;;;;;;;1.0;1.0;;;;;;;10.1;100.0;99480;;;;
2022/09/27 01:18:10;;;;;;;1.0;1.0;;;;;;;10.1;100.0;99480;;;;
2022/09/27 01:19:10;;;;;;;1.0;1.0;;;;;;;10.1;100.0;99480;;;;
2022/09/27 01:20:10;;;;;;;1.0;1.0;;;;;;;10.1;100.0;99480;;;;
2022/09/27 01:21:01;;;;;;;1.0;1.0;;;;;;;10.1;100.0;99480;;;;
2022/09/27 01:22:05;;;;;;;1.0;1.0;;;;;;;10.0;100.0;99480;;;;
2022/09/27 01:23:10;;;;;;;1.0;1.0;;;;;;;10.1;100.0;99480;;;;
2022/09/27 01:24:00;;;;;;;1.0;1.0;;;;;;;10.1;100.0;99480;;;;
2022/09/27 01:25:10;;;;;;;1.0;1.0;;;;;;;10.2;100.0;99480;;;;
2022/09/27 01:26:03;;;;;;;1.0;1.0;;;;;;;10.2;100.0;99480;;;;
2022/09/27 01:27:10;;;;;;;1.0;1.0;;;;;;;10.1;100.0;99480;;;;
2022/09/27 01:28:08;;;;;;;1.0;1.0;;;;;;;10.1;100.0;99480;;;;
2022/09/27 01:29:06;;;;;;;1.0;1.0;;;;;;;10.2;100.0;99480;;;;
2022/09/27 01:30:10;;;;;;;0.9;0.9;;;;;;;10.2;100.0;99480;;;;
2022/09/27 01:31:08;;;;;;;0.9;0.9;;;;;;;10.1;100.0;99480;;;;
2022/09/27 01:32:05;;;;;;;0.9;0.9;;;;;;;10.1;100.0;99480;;;;
2022/09/27 01:33:07;;;;;;;0.9;0.9;;;;;;;10.1;100.0;99480;;;;
2022/09/27 01:34:06;;;;;;;0.9;0.9;;;;;;;10.1;100.0;99480;;;;
2022/09/27 01:35:10;;;;;;;0.9;0.9;;;;;;;10.1;100.0;99480;;;;
2022/09/27 01:36:00;;;;;;;0.9;0.9;;;;;;;10.1;100.0;99480;;;;
2022/09/27 01:37:07;;;;;;;0.9;0.9;;;;;;;10.0;100.0;99490;;;;
2022/09/27 01:38:01;;;;;;;0.9;0.9;;;;;;;10.0;100.0;99490;;;;
2022/09/27 01:39:07;;;;;;;0.9;0.9;;;;;;;10.1;100.0;99490;;;;
2022/09/27 01:40:06;;;;;;;0.9;0.9;;;;;;;10.1;100.0;99490;;;;
2022/09/27 01:41:06;;;;;;;0.9;0.9;;;;;;;10.1;100.0;99490;;;;
2022/09/27 01:42:13;;;;;;;0.9;0.9;;;;;;;10.0;100.0;99490;;;;
2022/09/27 01:43:00;;;;;;;0.9;0.9;;;;;;;10.0;100.0;99490;;;;
2022/09/27 01:44:03;;;;;;;0.9;0.9;;;;;;;10.0;100.0;99480;;;;
2022/09/27 01:45:05;;;;;;;0.9;0.9;;;;;;;10.0;100.0;99480;;;;
2022/09/27 01:46:05;;;;;;;0.9;0.9;;;;;;;10.0;100.0;99480;;;;
2022/09/27 01:47:02;;;;;;;0.9;0.9;;;;;;;10.0;100.0;99480;;;;
2022/09/27 01:48:01;;;;;;;0.9;0.9;;;;;;;10.0;100.0;99490;;;;
2022/09/27 01:49:03;;;;;;;0.9;0.9;;;;;;;10.0;100.0;99490;;;;
2022/09/27 01:50:02;;;;;;;1.0;1.0;;;;;;;10.0;100.0;99490;;;;
2022/09/27 01:51:07;;;;;;;1.0;1.0;;;;;;;10.0;100.0;99490;;;;
2022/09/27 01:52:03;;;;;;;1.0;1.0;;;;;;;10.0;100.0;99490;;;;
2022/09/27 01:53:10;;;;;;;1.0;1.0;;;;;;;9.9;100.0;99490;;;;
2022/09/27 01:54:01;;;;;;;1.0;1.0;;;;;;;9.9;100.0;99490;;;;
2022/09/27 01:55:02;;;;;;;1.0;1.0;;;;;;;9.9;100.0;99490;;;;
2022/09/27 01:56:03;;;;;;;1.0;1.0;;;;;;;9.9;100.0;99490;;;;
2022/09/27 01:57:01;;;;;;;1.0;1.0;;;;;;;9.9;100.0;99490;;;;
2022/09/27 01:58:10;;;;;;;1.0;1.0;;;;;;;9.9;100.0;99490;;;;
2022/09/27 01:59:10;;;;;;;1.0;1.0;;;;;;;9.9;100.0;99490;;;;
2022/09/27 02:00:01;;;;;;;1.0;1.0;;;;;;;9.9;100.0;99490;;;;
2022/09/27 02:01:01;;;;;;;1.0;1.0;;;;;;;9.9;100.0;99490;;;;
2022/09/27 02:02:03;;;;;;;1.0;1.0;;;;;;;9.9;100.0;99490;;;;
2022/09/27 02:03:05;;;;;;;1.0;1.0;;;;;;;9.9;100.0;99490;;;;
2022/09/27 02:04:00;;;;;;;1.0;1.0;;;;;;;10.0;100.0;99490;;;;
2022/09/27 02:05:01;;;;;;;1.0;1.0;;;;;;;10.0;100.0;99490;;;;
2022/09/27 02:06:01;;;;;;;1.0;1.0;;;;;;;9.9;100.0;99490;;;;
2022/09/27 02:07:03;;;;;;;1.0;1.0;;;;;;;9.9;100.0;99490;;;;
2022/09/27 02:08:04;;;;;;;1.0;1.0;;;;;;;9.9;100.0;99490;;;;
2022/09/27 02:09:00;;;;;;;1.0;1.0;;;;;;;9.9;100.0;99490;;;;
2022/09/27 02:10:03;;;;;;;0.9;0.9;;;;;;;9.8;100.0;99490;;;;
2022/09/27 02:11:01;;;;;;;0.9;0.9;;;;;;;9.8;100.0;99490;;;;
2022/09/27 02:12:04;;;;;;;0.9;0.9;;;;;;;9.9;100.0;99490;;;;
2022/09/27 02:13:10;;;;;;;0.9;0.9;;;;;;;9.9;100.0;99490;;;;
2022/09/27 02:14:10;;;;;;;0.9;0.9;;;;;;;9.9;100.0;99490;;;;
2022/09/27 02:15:03;;;;;;;0.9;0.9;;;;;;;9.9;100.0;99490;;;;
2022/09/27 02:16:07;;;;;;;0.9;0.9;;;;;;;9.9;100.0;99500;;;;
2022/09/27 02:17:10;;;;;;;0.9;0.9;;;;;;;9.8;100.0;99490;;;;
2022/09/27 02:18:01;;;;;;;0.9;0.9;;;;;;;9.8;100.0;99490;;;;
2022/09/27 02:19:10;;;;;;;0.9;0.9;;;;;;;9.9;100.0;99500;;;;
2022/09/27 02:20:06;;;;;;;0.9;0.9;;;;;;;9.9;100.0;99500;;;;
2022/09/27 02:21:03;;;;;;;0.9;0.9;;;;;;;9.9;100.0;99500;;;;
2022/09/27 02:22:09;;;;;;;0.9;0.9;;;;;;;9.8;100.0;99490;;;;
2022/09/27 02:23:00;;;;;;;0.9;0.9;;;;;;;9.8;100.0;99490;;;;
2022/09/27 02:24:01;;;;;;;0.9;0.9;;;;;;;9.8;100.0;99500;;;;
2022/09/27 02:25:06;;;;;;;0.9;0.9;;;;;;;9.7;100.0;99500;;;;
2022/09/27 02:26:02;;;;;;;0.9;0.9;;;;;;;9.7;100.0;99500;;;;
2022/09/27 02:27:05;;;;;;;0.9;0.9;;;;;;;9.7;100.0;99500;;;;
2022/09/27 02:28:09;;;;;;;0.9;0.9;;;;;;;9.7;100.0;99500;;;;
2022/09/27 02:29:06;;;;;;;0.9;0.9;;;;;;;9.8;100.0;99490;;;;
2022/09/27 02:30:04;;;;;;;0.9;0.9;;;;;;;9.8;100.0;99490;;;;
2022/09/27 02:31:00;;;;;;;0.9;0.9;;;;;;;9.8;100.0;99490;;;;
2022/09/27 02:32:00;;;;;;;0.9;0.9;;;;;;;9.7;100.0;99490;;;;
2022/09/27 02:33:00;;;;;;;0.9;0.9;;;;;;;9.7;100.0;99490;;;;
2022/09/27 02:34:03;;;;;;;0.9;0.9;;;;;;;9.7;100.0;99490;;;;
2022/09/27 02:35:03;;;;;;;0.9;0.9;;;;;;;9.7;100.0;99490;;;;
2022/09/27 02:36:00;;;;;;;0.9;0.9;;;;;;;9.7;100.0;99490;;;;
2022/09/27 02:37:00;;;;;;;0.9;0.9;;;;;;;9.7;100.0;99490;;;;
2022/09/27 02:38:00;;;;;;;0.9;0.9;;;;;;;9.7;100.0;99500;;;;
2022/09/27 02:39:00;;;;;;;0.9;0.9;;;;;;;9.7;100.0;99500;;;;
2022/09/27 02:40:00;;;;;;;0.9;0.9;;;;;;;9.6;100.0;99500;;;;
2022/09/27 02:41:00;;;;;;;0.9;0.9;;;;;;;9.6;100.0;99500;;;;
2022/09/27 02:42:00;;;;;;;0.9;0.9;;;;;;;9.7;100.0;99500;;;;
2022/09/27 02:43:02;;;;;;;0.9;0.9;;;;;;;9.7;100.0;99500;;;;
2022/09/27 02:44:02;;;;;;;0.9;0.9;;;;;;;9.6;100.0;99510;;;;
2022/09/27 02:45:01;;;;;;;0.9;0.9;;;;;;;9.6;100.0;99510;;;;
2022/09/27 02:46:10;;;;;;;0.9;0.9;;;;;;;9.6;100.0;99500;;;;
2022/09/27 02:47:03;;;;;;;0.9;0.9;;;;;;;9.6;100.0;99500;;;;
2022/09/27 02:48:10;;;;;;;0.9;0.9;;;;;;;9.6;100.0;99500;;;;
2022/09/27 02:49:00;;;;;;;0.9;0.9;;;;;;;9.6;100.0;99500;;;;
2022/09/27 02:50:01;;;;;;;0.9;0.9;;;;;;;9.6;100.0;99510;;;;
2022/09/27 02:51:10;;;;;;;0.9;0.9;;;;;;;9.5;100.0;99500;;;;
2022/09/27 02:52:01;;;;;;;0.9;0.9;;;;;;;9.5;100.0;99500;;;;
2022/09/27 02:53:10;;;;;;;0.9;0.9;;;;;;;9.5;100.0;99500;;;;
2022/09/27 02:54:10;;;;;;;0.9;0.9;;;;;;;9.5;100.0;99500;;;;
2022/09/27 02:55:10;;;;;;;0.9;0.9;;;;;;;9.6;100.0;99500;;;;
2022/09/27 02:56:04;;;;;;;0.9;0.9;;;;;;;9.6;100.0;99500;;;;
2022/09/27 02:57:00;;;;;;;0.9;0.9;;;;;;;9.6;100.0;99500;;;;
2022/09/27 02:58:07;;;;;;;0.9;0.9;;;;;;;9.4;100.0;99500;;;;
2022/09/27 02:59:10;;;;;;;0.9;0.9;;;;;;;9.5;100.0;99510;;;;
2022/09/27 03:00:06;;;;;;;0.9;0.9;;;;;;;9.5;100.0;99510;;;;
2022/09/27 03:01:08;;;;;;;0.9;0.9;;;;;;;9.4;100.0;99510;;;;
2022/09/27 03:02:14;;;;;;;0.9;0.9;;;;;;;9.4;100.0;99510;;;;
2022/09/27 03:03:10;;;;;;;0.9;0.9;;;;;;;9.4;100.0;99510;;;;
2022/09/27 03:04:08;;;;;;;0.9;0.9;;;;;;;9.4;100.0;99510;;;;
2022/09/27 03:05:09;;;;;;;0.9;0.9;;;;;;;9.3;100.0;99510;;;;
2022/09/27 03:06:05;;;;;;;0.9;0.9;;;;;;;9.3;100.0;99510;;;;
2022/09/27 03:07:00;;;;;;;0.9;0.9;;;;;;;9.3;100.0;99510;;;;
2022/09/27 03:08:00;;;;;;;0.9;0.9;;;;;;;9.3;100.0;99510;;;;
2022/09/27 03:09:00;;;;;;;0.9;0.9;;;;;;;9.3;100.0;99510;;;;
2022/09/27 03:10:00;;;;;;;1.1;1.1;;;;;;;9.4;100.0;99510;;;;
2022/09/27 03:11:00;;;;;;;1.1;1.1;;;;;;;9.4;100.0;99510;;;;
2022/09/27 03:12:00;;;;;;;1.1;1.1;;;;;;;9.3;100.0;99510;;;;
2022/09/27 03:13:00;;;;;;;1.1;1.1;;;;;;;9.3;100.0;99510;;;;
2022/09/27 03:14:09;;;;;;;1.1;1.1;;;;;;;9.3;100.0;99500;;;;
2022/09/27 03:15:00;;;;;;;1.1;1.1;;;;;;;9.3;100.0;99500;;;;
2022/09/27 03:16:02;;;;;;;1.1;1.1;;;;;;;9.4;100.0;99500;;;;
2022/09/27 03:17:00;;;;;;;1.1;1.1;;;;;;;9.4;100.0;99500;;;;
2022/09/27 03:18:00;;;;;;;1.1;1.1;;;;;;;9.4;100.0;99510;;;;
2022/09/27 03:19:00;;;;;;;1.1;1.1;;;;;;;9.4;100.0;99510;;;;
2022/09/27 03:20:00;;;;;;;1.1;1.1;;;;;;;9.4;100.0;99510;;;;
2022/09/27 03:21:00;;;;;;;1.1;1.1;;;;;;;9.4;100.0;99510;;;;
2022/09/27 03:22:00;;;;;;;1.1;1.1;;;;;;;9.4;100.0;99510;;;;
2022/09/27 03:23:00;;;;;;;1.1;1.1;;;;;;;9.4;100.0;99510;;;;
2022/09/27 03:24:00;;;;;;;1.1;1.1;;;;;;;9.3;100.0;99510;;;;
2022/09/27 03:25:00;;;;;;;1.1;1.1;;;;;;;9.3;100.0;99510;;;;
2022/09/27 03:26:00;;;;;;;1.1;1.1;;;;;;;9.4;100.0;99500;;;;
2022/09/27 03:27:00;;;;;;;1.1;1.1;;;;;;;9.4;100.0;99500;;;;
2022/09/27 03:28:00;;;;;;;1.1;1.1;;;;;;;9.3;100.0;99500;;;;
2022/09/27 03:29:00;;;;;;;1.1;1.1;;;;;;;9.3;100.0;99500;;;;
2022/09/27 03:30:00;;;;;;;1.0;1.0;;;;;;;9.3;100.0;99500;;;;
2022/09/27 03:31:00;;;;;;;1.0;1.0;;;;;;;9.3;100.0;99500;;;;
2022/09/27 03:32:00;;;;;;;1.0;1.0;;;;;;;9.3;100.0;99500;;;;
2022/09/27 03:33:00;;;;;;;1.0;1.0;;;;;;;9.3;100.0;99500;;;;
2022/09/27 03:34:00;;;;;;;1.0;1.0;;;;;;;9.2;100.0;99500;;;;
2022/09/27 03:35:00;;;;;;;1.0;1.0;;;;;;;9.2;100.0;99500;;;;
2022/09/27 03:36:00;;;;;;;1.0;1.0;;;;;;;9.3;100.0;99500;;;;
2022/09/27 03:37:00;;;;;;;1.0;1.0;;;;;;;9.3;100.0;99500;;;;
2022/09/27 03:38:00;;;;;;;1.0;1.0;;;;;;;9.2;100.0;99510;;;;
2022/09/27 03:39:00;;;;;;;1.0;1.0;;;;;;;9.2;100.0;99510;;;;
2022/09/27 03:40:00;;;;;;;1.0;1.0;;;;;;;9.1;100.0;99510;;;;
2022/09/27 03:41:00;;;;;;;1.0;1.0;;;;;;;9.1;100.0;99510;;;;
2022/09/27 03:42:00;;;;;;;1.0;1.0;;;;;;;9.3;100.0;99510;;;;
2022/09/27 03:43:00;;;;;;;1.0;1.0;;;;;;;9.3;100.0;99510;;;;
2022/09/27 03:44:00;;;;;;;1.0;1.0;;;;;;;9.2;100.0;99520;;;;
2022/09/27 03:45:00;;;;;;;1.0;1.0;;;;;;;9.2;100.0;99520;;;;
2022/09/27 03:46:00;;;;;;;1.0;1.0;;;;;;;9.1;100.0;99520;;;;
2022/09/27 03:47:00;;;;;;;1.0;1.0;;;;;;;9.1;100.0;99520;;;;
2022/09/27 03:48:00;;;;;;;1.0;1.0;;;;;;;9.0;100.0;99520;;;;
2022/09/27 03:49:00;;;;;;;1.0;1.0;;;;;;;9.0;100.0;99520;;;;
2022/09/27 03:50:00;;;;;;;1.0;1.0;;;;;;;9.1;100.0;99530;;;;
2022/09/27 03:51:00;;;;;;;1.0;1.0;;;;;;;9.1;100.0;99530;;;;
2022/09/27 03:52:00;;;;;;;1.0;1.0;;;;;;;9.1;100.0;99540;;;;
2022/09/27 03:53:00;;;;;;;1.0;1.0;;;;;;;9.1;100.0;99540;;;;
2022/09/27 03:54:00;;;;;;;1.0;1.0;;;;;;;9.1;100.0;99540;;;;
2022/09/27 03:55:02;;;;;;;1.0;1.0;;;;;;;9.1;100.0;99540;;;;
2022/09/27 03:56:00;;;;;;;1.0;1.0;;;;;;;9.0;100.0;99550;;;;
2022/09/27 03:57:00;;;;;;;1.0;1.0;;;;;;;9.0;100.0;99550;;;;
2022/09/27 03:58:00;;;;;;;1.0;1.0;;;;;;;9.0;100.0;99560;;;;
2022/09/27 03:59:00;;;;;;;1.0;1.0;;;;;;;9.0;100.0;99560;;;;
2022/09/27 04:00:00;;;;;;;1.0;1.0;;;;;;;9.0;100.0;99560;;;;
2022/09/27 04:01:00;;;;;;;1.0;1.0;;;;;;;9.0;100.0;99560;;;;
2022/09/27 04:02:00;;;;;;;1.0;1.0;;;;;;;9.0;100.0;99550;;;;
2022/09/27 04:03:00;;;;;;;1.0;1.0;;;;;;;9.0;100.0;99550;;;;
2022/09/27 04:04:00;;;;;;;1.0;1.0;;;;;;;9.0;100.0;99550;;;;
2022/09/27 04:05:00;;;;;;;1.0;1.0;;;;;;;9.0;100.0;99550;;;;
2022/09/27 04:06:00;;;;;;;1.0;1.0;;;;;;;9.0;100.0;99540;;;;
2022/09/27 04:07:00;;;;;;;1.0;1.0;;;;;;;9.0;100.0;99540;;;;
2022/09/27 04:08:00;;;;;;;1.0;1.0;;;;;;;8.9;100.0;99550;;;;
2022/09/27 04:09:00;;;;;;;1.0;1.0;;;;;;;8.9;100.0;99550;;;;
2022/09/27 04:10:00;;;;;;;1.0;1.0;;;;;;;9.0;100.0;99550;;;;
2022/09/27 04:11:00;;;;;;;1.0;1.0;;;;;;;9.0;100.0;99550;;;;
2022/09/27 04:12:00;;;;;;;1.0;1.0;;;;;;;9.0;100.0;99550;;;;
2022/09/27 04:13:00;;;;;;;1.0;1.0;;;;;;;9.0;100.0;99550;;;;
2022/09/27 04:14:00;;;;;;;1.0;1.0;;;;;;;8.9;100.0;99540;;;;
2022/09/27 04:15:00;;;;;;;1.0;1.0;;;;;;;8.9;100.0;99540;;;;
2022/09/27 04:16:01;;;;;;;1.0;1.0;;;;;;;8.9;100.0;99530;;;;
2022/09/27 04:17:00;;;;;;;1.0;1.0;;;;;;;8.9;100.0;99530;;;;
2022/09/27 04:18:00;;;;;;;1.0;1.0;;;;;;;9.1;100.0;99530;;;;
2022/09/27 04:19:01;;;;;;;1.0;1.0;;;;;;;9.1;100.0;99530;;;;
2022/09/27 04:20:02;;;;;;;1.0;1.0;;;;;;;9.1;100.0;99520;;;;
2022/09/27 04:21:00;;;;;;;1.0;1.0;;;;;;;9.1;100.0;99520;;;;
2022/09/27 04:22:00;;;;;;;1.0;1.0;;;;;;;9.1;100.0;99510;;;;
2022/09/27 04:23:00;;;;;;;1.0;1.0;;;;;;;9.1;100.0;99510;;;;
2022/09/27 04:24:00;;;;;;;1.0;1.0;;;;;;;9.0;100.0;99510;;;;
2022/09/27 04:25:00;;;;;;;1.0;1.0;;;;;;;9.0;100.0;99510;;;;
2022/09/27 04:26:00;;;;;;;1.0;1.0;;;;;;;8.9;100.0;99500;;;;
2022/09/27 04:27:00;;;;;;;1.0;1.0;;;;;;;8.9;100.0;99500;;;;
2022/09/27 04:28:01;;;;;;;1.0;1.0;;;;;;;9.0;100.0;99490;;;;
2022/09/27 04:29:00;;;;;;;1.0;1.0;;;;;;;9.0;100.0;99490;;;;
2022/09/27 04:30:00;;;;;;;0.9;0.9;;;;;;;9.1;100.0;99500;;;;
2022/09/27 04:31:00;;;;;;;0.9;0.9;;;;;;;9.1;100.0;99500;;;;
2022/09/27 04:32:00;;;;;;;0.9;0.9;;;;;;;9.1;100.0;99500;;;;
2022/09/27 04:33:00;;;;;;;0.9;0.9;;;;;;;9.1;100.0;99500;;;;
2022/09/27 04:34:00;;;;;;;0.9;0.9;;;;;;;9.1;100.0;99500;;;;
2022/09/27 04:37:00;;;;;;;0.9;0.9;;;;;;;9.1;100.0;99520;;;;
2022/09/27 04:38:00;;;;;;;0.9;0.9;;;;;;;9.1;100.0;99510;;;;
2022/09/27 04:39:01;;;;;;;0.9;0.9;;;;;;;9.1;100.0;99510;;;;
2022/09/27 04:40:00;;;;;;;0.9;0.9;;;;;;;9.0;100.0;99510;;;;
2022/09/27 04:41:00;;;;;;;0.9;0.9;;;;;;;9.0;100.0;99510;;;;
2022/09/27 04:42:00;;;;;;;0.9;0.9;;;;;;;9.0;100.0;99510;;;;
2022/09/27 04:43:00;;;;;;;0.9;0.9;;;;;;;9.0;100.0;99510;;;;
2022/09/27 04:44:00;;;;;;;0.9;0.9;;;;;;;9.0;100.0;99510;;;;
2022/09/27 04:45:00;;;;;;;0.9;0.9;;;;;;;9.0;100.0;99510;;;;
2022/09/27 04:46:00;;;;;;;0.9;0.9;;;;;;;9.0;100.0;99510;;;;
2022/09/27 04:47:00;;;;;;;0.9;0.9;;;;;;;9.0;100.0;99510;;;;
2022/09/27 04:48:00;;;;;;;0.9;0.9;;;;;;;8.9;100.0;99520;;;;
2022/09/27 04:49:00;;;;;;;0.9;0.9;;;;;;;8.9;100.0;99520;;;;
2022/09/27 04:50:00;;;;;;;1.2;1.2;;;;;;;8.9;100.0;99520;;;;
2022/09/27 04:51:01;;;;;;;1.2;1.2;;;;;;;8.9;100.0;99520;;;;
2022/09/27 04:52:00;;;;;;;1.2;1.2;;;;;;;8.9;100.0;99520;;;;
2022/09/27 04:53:00;;;;;;;1.2;1.2;;;;;;;8.9;100.0;99520;;;;
2022/09/27 04:54:00;;;;;;;1.2;1.2;;;;;;;9.0;100.0;99520;;;;
2022/09/27 04:55:00;;;;;;;1.2;1.2;;;;;;;9.0;100.0;99520;;;;
2022/09/27 04:56:05;;;;;;;1.2;1.2;;;;;;;8.9;100.0;99520;;;;
2022/09/27 04:57:00;;;;;;;1.2;1.2;;;;;;;8.9;100.0;99520;;;;
2022/09/27 04:58:00;;;;;;;1.2;1.2;;;;;;;8.9;100.0;99520;;;;
2022/09/27 04:59:00;;;;;;;1.2;1.2;;;;;;;8.9;100.0;99520;;;;
2022/09/27 05:00:00;;;;;;;1.2;1.2;;;;;;;8.9;100.0;99520;;;;
2022/09/27 05:01:02;;;;;;;1.2;1.2;;;;;;;8.9;100.0;99520;;;;
2022/09/27 05:02:00;;;;;;;1.2;1.2;;;;;;;8.9;100.0;99530;;;;
2022/09/27 05:03:00;;;;;;;1.2;1.2;;;;;;;8.9;100.0;99530;;;;
2022/09/27 05:04:00;;;;;;;1.2;1.2;;;;;;;8.8;100.0;99540;;;;
2022/09/27 05:05:00;;;;;;;1.2;1.2;;;;;;;8.8;100.0;99540;;;;
2022/09/27 05:06:00;;;;;;;1.2;1.2;;;;;;;8.9;100.0;99540;;;;
2022/09/27 05:07:00;;;;;;;1.2;1.2;;;;;;;8.9;100.0;99540;;;;
2022/09/27 05:08:00;;;;;;;1.2;1.2;;;;;;;8.8;100.0;99550;;;;
2022/09/27 05:09:00;;;;;;;1.2;1.2;;;;;;;8.8;100.0;99550;;;;
2022/09/27 05:10:00;;;;;;;1.2;1.2;;;;;;;8.7;100.0;99560;;;;
2022/09/27 05:11:00;;;;;;;1.2;1.2;;;;;;;8.7;100.0;99560;;;;
2022/09/27 05:12:00;;;;;;;1.2;1.2;;;;;;;8.7;100.0;99550;;;;
2022/09/27 05:13:00;;;;;;;1.2;1.2;;;;;;;8.7;100.0;99550;;;;
2022/09/27 05:14:00;;;;;;;1.2;1.2;;;;;;;8.8;100.0;99560;;;;
2022/09/27 05:15:00;;;;;;;1.2;1.2;;;;;;;8.8;100.0;99560;;;;
2022/09/27 05:16:02;;;;;;;1.2;1.2;;;;;;;8.8;100.0;99560;;;;
2022/09/27 05:17:00;;;;;;;1.2;1.2;;;;;;;8.8;100.0;99560;;;;
2022/09/27 05:18:00;;;;;;;1.2;1.2;;;;;;;8.8;100.0;99560;;;;
2022/09/27 05:19:00;;;;;;;1.2;1.2;;;;;;;8.8;100.0;99560;;;;
2022/09/27 05:20:00;;;;;;;1.2;1.2;;;;;;;8.8;100.0;99560;;;;
2022/09/27 05:21:00;;;;;;;1.2;1.2;;;;;;;8.8;100.0;99560;;;;
2022/09/27 05:22:00;;;;;;;1.2;1.2;;;;;;;8.8;100.0;99560;;;;
2022/09/27 05:23:00;;;;;;;1.2;1.2;;;;;;;8.8;100.0;99560;;;;
2022/09/27 05:24:00;;;;;;;1.2;1.2;;;;;;;8.8;100.0;99550;;;;
2022/09/27 05:25:00;;;;;;;1.2;1.2;;;;;;;8.8;100.0;99550;;;;
2022/09/27 05:26:04;;;;;;;1.2;1.2;;;;;;;8.8;100.0;99550;;;;
2022/09/27 05:27:00;;;;;;;1.2;1.2;;;;;;;8.8;100.0;99550;;;;
2022/09/27 05:28:00;;;;;;;1.2;1.2;;;;;;;8.8;100.0;99550;;;;
2022/09/27 05:29:00;;;;;;;1.2;1.2;;;;;;;8.8;100.0;99550;;;;
2022/09/27 05:30:00;;;;;;;1.2;1.2;;;;;;;8.8;100.0;99560;;;;
2022/09/27 05:31:00;;;;;;;1.2;1.2;;;;;;;8.8;100.0;99560;;;;
2022/09/27 05:32:00;;;;;;;1.2;1.2;;;;;;;8.8;100.0;99550;;;;
2022/09/27 05:33:00;;;;;;;1.2;1.2;;;;;;;8.8;100.0;99550;;;;
2022/09/27 05:34:00;;;;;;;1.2;1.2;;;;;;;8.9;100.0;99550;;;;
2022/09/27 05:35:00;;;;;;;1.2;1.2;;;;;;;8.9;100.0;99550;;;;
2022/09/27 05:36:01;;;;;;;1.2;1.2;;;;;;;8.9;100.0;99550;;;;
2022/09/27 05:37:00;;;;;;;1.2;1.2;;;;;;;8.9;100.0;99550;;;;
2022/09/27 05:38:00;;;;;;;1.2;1.2;;;;;;;8.9;100.0;99550;;;;
2022/09/27 05:39:00;;;;;;;1.2;1.2;;;;;;;8.9;100.0;99550;;;;
2022/09/27 05:40:10;;;;;;;1.2;1.2;;;;;;;8.9;100.0;99540;;;;
2022/09/27 05:41:00;;;;;;;1.2;1.2;;;;;;;8.9;100.0;99540;;;;
2022/09/27 05:42:01;;;;;;;1.2;1.2;;;;;;;9.0;100.0;99540;;;;
2022/09/27 05:43:00;;;;;;;1.2;1.2;;;;;;;9.0;100.0;99540;;;;
2022/09/27 05:44:00;;;;;;;1.2;1.2;;;;;;;9.0;100.0;99540;;;;
2022/09/27 05:45:00;;;;;;;1.2;1.2;;;;;;;9.0;100.0;99540;;;;
2022/09/27 05:46:00;;;;;;;1.2;1.2;;;;;;;9.0;100.0;99540;;;;
2022/09/27 05:47:03;;;;;;;1.2;1.2;;;;;;;9.0;100.0;99540;;;;
2022/09/27 05:48:00;;;;;;;1.2;1.2;;;;;;;8.9;100.0;99540;;;;
2022/09/27 05:49:00;;;;;;;1.0;1.0;;;;;;;8.9;100.0;99540;;;;
2022/09/27 05:50:00;;;;;;;1.0;1.0;;;;;;;8.9;100.0;99540;;;;
2022/09/27 05:51:00;;;;;;;1.0;1.0;;;;;;;8.9;100.0;99540;;;;
2022/09/27 05:52:00;;;;;;;1.0;1.0;;;;;;;9.0;100.0;99540;;;;
2022/09/27 05:53:00;;;;;;;1.0;1.0;;;;;;;9.0;100.0;99540;;;;
2022/09/27 05:54:00;;;;;;;1.0;1.0;;;;;;;8.9;100.0;99530;;;;
2022/09/27 05:55:00;;;;;;;1.0;1.0;;;;;;;8.9;100.0;99530;;;;
2022/09/27 05:56:00;;;;;;;1.0;1.0;;;;;;;8.9;100.0;99530;;;;
2022/09/27 05:57:00;;;;;;;1.0;1.0;;;;;;;8.9;100.0;99530;;;;
2022/09/27 05:58:01;;;;;;;1.0;1.0;;;;;;;8.8;100.0;99530;;;;
2022/09/27 05:59:00;;;;;;;1.0;1.0;;;;;;;8.8;100.0;99530;;;;
2022/09/27 06:00:00;;;;;;;1.0;1.0;;;;;;;8.9;100.0;99530;;;;
2022/09/27 06:01:00;;;;;;;1.0;1.0;;;;;;;8.9;100.0;99530;;;;
2022/09/27 06:02:00;;;;;;;1.0;1.0;;;;;;;8.9;100.0;99520;;;;
2022/09/27 06:03:01;;;;;;;1.0;1.0;;;;;;;8.9;100.0;99520;;;;
2022/09/27 06:04:01;;;;;;;1.0;1.0;;;;;;;8.8;100.0;99520;;;;
2022/09/27 06:05:00;;;;;;;1.0;1.0;;;;;;;8.8;100.0;99520;;;;
2022/09/27 06:06:05;;;;;;;1.0;1.0;;;;;;;8.8;100.0;99510;;;;
2022/09/27 06:07:00;;;;;;;1.0;1.0;;;;;;;8.8;100.0;99510;;;;
2022/09/27 06:08:02;;;;;;;1.0;1.0;;;;;;;9.0;100.0;99520;;;;
2022/09/27 06:09:01;;;;;;;1.0;1.0;;;;;;;9.0;100.0;99520;;;;
2022/09/27 06:10:00;;;;;;;1.0;1.0;;;;;;;9.0;100.0;99520;;;;
2022/09/27 06:11:03;;;;;;;1.0;1.0;;;;;;;9.0;100.0;99520;;;;
2022/09/27 06:12:00;;;;;;;1.0;1.0;;;;;;;8.9;100.0;99540;;;;
2022/09/27 06:13:01;;;;;;;1.0;1.0;;;;;;;8.9;100.0;99540;;;;
2022/09/27 06:14:00;;;;;;;1.0;1.0;;;;;;;8.9;100.0;99540;;;;
2022/09/27 06:15:00;;;;;;;1.0;1.0;;;;;;;8.9;100.0;99540;;;;
2022/09/27 06:16:00;;;;;;;1.0;1.0;;;;;;;8.9;100.0;99540;;;;
2022/09/27 06:17:00;;;;;;;1.0;1.0;;;;;;;8.9;100.0;99540;;;;
2022/09/27 06:18:03;;;;;;;1.0;1.0;;;;;;;8.9;100.0;99550;;;;
2022/09/27 06:19:00;;;;;;;1.0;1.0;;;;;;;8.9;100.0;99550;;;;
2022/09/27 06:20:00;;;;;;;1.0;1.0;;;;;;;8.9;100.0;99550;;;;
2022/09/27 06:21:00;;;;;;;1.0;1.0;;;;;;;8.9;100.0;99550;;;;
2022/09/27 06:22:00;;;;;;;1.0;1.0;;;;;;;8.9;100.0;99540;;;;
2022/09/27 06:23:08;;;;;;;1.0;1.0;;;;;;;8.9;100.0;99540;;;;
2022/09/27 06:24:00;;;;;;;1.0;1.0;;;;;;;8.9;100.0;99540;;;;
2022/09/27 06:25:00;;;;;;;1.0;1.0;;;;;;;8.9;100.0;99540;;;;
2022/09/27 06:26:02;;;;;;;1.0;1.0;;;;;;;8.9;100.0;99550;;;;
2022/09/27 06:27:00;;;;;;;1.0;1.0;;;;;;;8.9;100.0;99550;;;;
2022/09/27 06:28:00;;;;;;;1.0;1.0;;;;;;;9.0;100.0;99560;;;;
2022/09/27 06:29:00;;;;;;;1.1;1.1;;;;;;;9.0;100.0;99560;;;;
2022/09/27 06:30:00;;;;;;;1.1;1.1;;;;;;;9.0;100.0;99570;;;;
2022/09/27 06:31:00;;;;;;;1.1;1.1;;;;;;;9.0;100.0;99570;;;;
2022/09/27 06:32:00;;;;;;;1.1;1.1;;;;;;;9.0;100.0;99570;;;;
2022/09/27 06:33:01;;;;;;;1.1;1.1;;;;;;;9.0;100.0;99570;;;;
2022/09/27 06:34:00;;;;;;;1.1;1.1;;;;;;;9.0;100.0;99570;;;;
2022/09/27 06:35:00;;;;;;;1.1;1.1;;;;;;;9.0;100.0;99570;;;;